Time;durP1;ratioP1;P1;durP2;ratioP2;P2;SDS_P1;SDS_P2;PMS_P1;PMS_P2;Temp;Humidity;BMP_temperature;BMP_pressure;BME280_temperature;BME280_humidity;BME280_pressure;Samples;Min_cycle;Max_cycle;Signal;HPM_P1;HPM_P2
2023/01/12 00:01:37;;;;;;;9.18;2.22;;;11.20;99.90;;;;;;6006099;23;20078;-84
2023/01/12 00:04:43;;;;;;;12.25;2.22;;;11.30;99.90;;;;;;6069123;23;20018;-87
2023/01/12 00:07:13;;;;;;;9.38;2.00;;;11.30;99.90;;;;;;6043650;23;20042;-84
2023/01/12 00:09:41;;;;;;;10.02;2.30;;;11.30;99.90;;;;;;6251263;22;20003;-84
2023/01/12 00:12:10;;;;;;;11.23;2.13;;;11.30;99.90;;;;;;6285322;22;20052;-83
2023/01/12 00:14:43;;;;;;;10.02;2.40;;;11.30;99.90;;;;;;6285924;22;20000;-84
2023/01/12 00:17:18;;;;;;;8.75;1.98;;;11.30;99.90;;;;;;6313091;22;20074;-84
2023/01/12 00:19:47;;;;;;;11.00;2.22;;;11.40;99.90;;;;;;6280712;22;20511;-85
2023/01/12 00:22:15;;;;;;;13.48;2.45;;;11.40;99.90;;;;;;6282197;22;20050;-86
2023/01/12 00:25:34;;;;;;;;;;;;;;;;;;;;;
2023/01/12 00:28:10;;;;;;;8.10;1.80;;;11.40;99.90;;;;;;6275049;22;20030;-88
2023/01/12 00:30:48;;;;;;;;;;;;;;;;;;;;;
2023/01/12 00:33:23;;;;;;;16.33;2.88;;;11.50;99.90;;;;;;6282404;22;20023;-87
2023/01/12 00:35:49;;;;;;;10.30;2.28;;;11.40;99.90;;;;;;6280551;22;20082;-86
2023/01/12 00:38:19;;;;;;;10.65;2.60;;;11.40;99.90;;;;;;6281559;22;20337;-86
2023/01/12 00:41:04;;;;;;;9.77;1.77;;;11.50;99.90;;;;;;6282232;22;20011;-86
2023/01/12 00:46:34;;;;;;;10.10;2.22;;;11.50;99.90;;;;;;6281869;22;20014;-86
2023/01/12 00:49:07;;;;;;;8.68;1.98;;;11.50;99.90;;;;;;6279853;22;20006;-86
2023/01/12 00:52:57;;;;;;;9.10;1.95;;;11.50;99.90;;;;;;6280400;22;20003;-88
2023/01/12 00:56:06;;;;;;;7.13;2.03;;;11.50;99.90;;;;;;6234853;22;20034;-86
2023/01/12 01:01:50;;;;;;;10.25;1.88;;;11.60;99.90;;;;;;6278492;22;20003;-83
2023/01/12 01:18:59;;;;;;;;;;;;;;;;;;;;;
2023/01/12 01:22:11;;;;;;;;;;;;;;;;;;;;;
2023/01/12 01:24:40;;;;;;;6.45;1.50;;;11.60;99.90;;;;;;6134341;23;20081;-85
2023/01/12 01:27:14;;;;;;;12.25;2.20;;;11.70;99.90;;;;;;6163012;23;20446;-85
2023/01/12 01:29:59;;;;;;;7.82;1.83;;;11.70;99.90;;;;;;6263642;22;20004;-86
2023/01/12 01:32:25;;;;;;;11.38;2.78;;;11.70;99.90;;;;;;6254608;22;20000;-85
2023/01/12 01:35:03;;;;;;;7.07;1.42;;;11.70;99.90;;;;;;6254289;22;20006;-85
2023/01/12 01:37:43;;;;;;;9.38;2.08;;;11.70;99.90;;;;;;6281362;22;20509;-85
2023/01/12 01:40:14;;;;;;;10.38;2.05;;;11.70;99.90;;;;;;6253814;22;20366;-85
2023/01/12 01:42:40;;;;;;;8.73;1.85;;;11.70;99.90;;;;;;6254173;22;20000;-84
2023/01/12 01:45:11;;;;;;;8.18;1.90;;;11.70;99.90;;;;;;6254497;22;20029;-84
2023/01/12 01:47:44;;;;;;;11.45;2.10;;;11.70;99.90;;;;;;6281377;22;20003;-84
2023/01/12 01:50:27;;;;;;;9.90;2.03;;;11.70;99.90;;;;;;6280931;22;20440;-84
2023/01/12 01:53:07;;;;;;;9.55;1.88;;;11.70;99.90;;;;;;6281454;22;19996;-83
2023/01/12 02:00:36;;;;;;;;;;;;;;;;;;;;;
2023/01/12 02:46:13;;;;;;;;;;;;;;;;;;;;;
2023/01/12 03:50:30;;;;;;;;;;;;;;;;;;;;;
2023/01/12 04:27:04;;;;;;;5.75;1.17;;;11.70;99.90;;;;;;6127662;23;20040;-86
2023/01/12 04:30:25;;;;;;;;;;;;;;;;;;;;;
2023/01/12 04:32:51;;;;;;;9.20;1.35;;;11.70;99.90;;;;;;6144036;23;20109;-85
2023/01/12 04:35:25;;;;;;;7.85;1.48;;;11.70;99.90;;;;;;6226577;23;20426;-85
2023/01/12 04:37:53;;;;;;;9.48;1.50;;;11.80;99.90;;;;;;6254387;22;20026;-86
2023/01/12 04:40:19;;;;;;;6.88;1.50;;;11.80;99.90;;;;;;6290077;22;20440;-87
2023/01/12 04:43:10;;;;;;;5.18;1.30;;;11.80;99.90;;;;;;6290499;22;20003;-86
2023/01/12 04:45:47;;;;;;;5.03;1.23;;;11.80;99.90;;;;;;6288491;22;20046;-85
2023/01/12 04:49:03;;;;;;;;;;;;;;;;;;;;;
2023/01/12 04:51:49;;;;;;;5.20;1.17;;;11.80;99.90;;;;;;6282005;22;20028;-88
2023/01/12 04:54:15;;;;;;;6.22;1.35;;;11.80;99.90;;;;;;6291505;22;20440;-84
2023/01/12 04:56:40;;;;;;;5.97;1.30;;;11.80;99.90;;;;;;6288918;22;20014;-84
2023/01/12 05:06:06;;;;;;;;;;;;;;;;;;;;;
2023/01/12 05:23:22;;;;;;;6.32;1.23;;;11.80;99.90;;;;;;6072801;23;20066;-88
2023/01/12 05:26:13;;;;;;;;;;;;;;;;;;;;;
2023/01/12 05:32:46;;;;;;;;;;;;;;;;;;;;;
2023/01/12 05:35:22;;;;;;;7.72;1.40;;;11.70;99.90;;;;;;6275495;22;20031;-85
2023/01/12 05:37:48;;;;;;;5.00;1.27;;;11.80;99.90;;;;;;6284040;22;20024;-86
2023/01/12 05:40:43;;;;;;;7.68;1.42;;;11.80;99.90;;;;;;6292434;22;20000;-89
2023/01/12 05:46:02;;;;;;;7.38;1.73;;;11.80;99.90;;;;;;6283104;22;20057;-87
2023/01/12 05:48:28;;;;;;;9.93;1.70;;;11.80;99.90;;;;;;6281467;22;20007;-87
2023/01/12 05:50:57;;;;;;;7.40;1.83;;;11.80;99.90;;;;;;6283246;22;20079;-88
2023/01/12 05:54:25;;;;;;;;;;;;;;;;;;;;;
2023/01/12 06:04:51;;;;;;;;;;;;;;;;;;;;;
2023/01/12 06:25:20;;;;;;;8.43;1.90;;;11.90;99.90;;;;;;6006940;23;20004;-86
2023/01/12 06:27:51;;;;;;;6.05;1.60;;;12.00;99.90;;;;;;6189715;22;20078;-86
2023/01/12 06:30:17;;;;;;;7.43;1.67;;;12.00;99.90;;;;;;6286139;22;20007;-86
2023/01/12 06:32:50;;;;;;;4.47;1.33;;;12.00;99.90;;;;;;6286236;22;20034;-84
2023/01/12 06:35:16;;;;;;;9.18;1.45;;;12.00;99.90;;;;;;6286167;22;20314;-87
2023/01/12 06:37:42;;;;;;;7.07;1.60;;;12.00;99.90;;;;;;6285929;22;20061;-85
2023/01/12 06:40:08;;;;;;;7.63;1.73;;;12.00;99.90;;;;;;6312910;22;19999;-85
2023/01/12 06:42:39;;;;;;;9.38;2.20;;;11.90;99.90;;;;;;6311113;22;20003;-84
2023/01/12 06:45:05;;;;;;;7.30;1.48;;;11.90;99.90;;;;;;6285712;22;20529;-87
2023/01/12 06:47:47;;;;;;;8.40;2.00;;;11.80;99.90;;;;;;6286251;22;20000;-88
2023/01/12 06:53:09;;;;;;;7.53;1.40;;;11.80;99.90;;;;;;6264476;22;19999;-84
2023/01/12 06:55:35;;;;;;;6.70;1.40;;;11.80;99.90;;;;;;6312639;22;20064;-83
2023/01/12 06:58:03;;;;;;;6.55;1.75;;;11.80;99.90;;;;;;6286142;22;20007;-83
2023/01/12 07:00:30;;;;;;;8.00;1.73;;;11.80;99.90;;;;;;6285375;22;20007;-85
2023/01/12 07:02:56;;;;;;;8.73;1.80;;;11.80;99.90;;;;;;6313083;22;20004;-84
2023/01/12 07:13:21;;;;;;;;;;;;;;;;;;;;;
2023/01/12 07:16:26;;;;;;;4.40;1.00;;;11.80;99.90;;;;;;5985551;24;20096;-89
2023/01/12 07:23:44;;;;;;;;;;;;;;;;;;;;;
2023/01/12 07:26:10;;;;;;;3.33;1.05;;;11.80;99.90;;;;;;5935234;23;20068;-88
2023/01/12 07:45:17;;;;;;;8.98;1.73;;;11.90;99.90;;;;;;6272526;22;19914;-84
2023/01/12 07:47:54;;;;;;;5.93;1.52;;;11.80;99.90;;;;;;6341307;22;20011;-90
2023/01/12 07:50:26;;;;;;;7.38;1.60;;;11.80;99.90;;;;;;6342022;22;20007;-84
2023/01/12 07:53:54;;;;;;;6.45;1.40;;;11.80;99.90;;;;;;6340323;22;20003;-86
2023/01/12 07:56:37;;;;;;;3.67;1.08;;;11.80;99.90;;;;;;6241417;23;20004;-87
2023/01/12 07:59:15;;;;;;;5.55;1.45;;;11.80;99.90;;;;;;6248231;23;20004;-88
2023/01/12 08:02:29;;;;;;;5.32;1.63;;;11.70;99.90;;;;;;6216796;23;20004;-92
2023/01/12 08:05:06;;;;;;;;;;;11.70;99.90;;;;;;6312155;22;20007;-84
2023/01/12 08:19:06;;;;;;;5.28;1.60;;;11.60;99.90;;;;;;6346841;22;20026;-84
2023/01/12 08:21:45;;;;;;;3.83;1.00;;;11.60;99.90;;;;;;6347139;22;20032;-86
2023/01/12 08:24:35;;;;;;;4.35;1.15;;;11.60;99.90;;;;;;6347179;22;20009;-86
2023/01/12 08:27:08;;;;;;;6.72;1.33;;;11.60;99.90;;;;;;6347100;22;20002;-86
2023/01/12 08:32:40;;;;;;;3.47;1.03;;;11.70;99.90;;;;;;6368658;22;20050;-86
2023/01/12 08:35:19;;;;;;;4.53;1.40;;;11.70;99.90;;;;;;6347109;22;20233;-85
2023/01/12 08:37:55;;;;;;;5.93;1.30;;;11.70;99.90;;;;;;6347334;22;20007;-85
2023/01/12 08:40:21;;;;;;;11.40;2.17;;;11.70;99.90;;;;;;6347375;22;20051;-84
2023/01/12 08:42:58;;;;;;;6.65;1.52;;;11.70;99.90;;;;;;6372295;22;19994;-87
2023/01/12 08:45:26;;;;;;;5.93;1.65;;;11.70;99.90;;;;;;6346576;22;20316;-85
2023/01/12 08:47:52;;;;;;;5.55;1.38;;;11.70;99.90;;;;;;6347486;22;20002;-85
2023/01/12 08:50:18;;;;;;;6.75;1.80;;;11.70;99.90;;;;;;6376592;22;20530;-85
2023/01/12 08:52:43;;;;;;;7.82;2.17;;;11.80;99.90;;;;;;6377219;22;20003;-85
2023/01/12 08:55:10;;;;;;;7.60;1.65;;;11.80;99.90;;;;;;6377051;22;19999;-85
2023/01/12 08:57:37;;;;;;;6.78;1.80;;;11.80;99.90;;;;;;6376655;22;19998;-85
2023/01/12 09:00:03;;;;;;;5.63;1.55;;;11.90;99.90;;;;;;6348349;22;20018;-85
2023/01/12 09:02:29;;;;;;;8.88;2.13;;;11.90;99.90;;;;;;6348939;22;19998;-85
2023/01/12 09:04:54;;;;;;;9.88;1.95;;;11.90;99.90;;;;;;6348707;22;19998;-85
2023/01/12 09:07:21;;;;;;;8.43;1.83;;;12.00;99.90;;;;;;6348101;22;20010;-84
2023/01/12 09:09:46;;;;;;;11.25;2.05;;;11.90;99.90;;;;;;6348775;22;20075;-84
2023/01/12 09:12:12;;;;;;;5.82;1.52;;;12.00;99.90;;;;;;6376510;22;20030;-84
2023/01/12 09:14:40;;;;;;;7.72;1.50;;;12.00;99.90;;;;;;6348765;22;20009;-84
2023/01/12 09:17:06;;;;;;;8.77;1.90;;;12.00;99.90;;;;;;6376455;22;20009;-84
2023/01/12 09:19:32;;;;;;;10.85;1.70;;;12.10;99.90;;;;;;6348339;22;20019;-84
2023/01/12 09:22:00;;;;;;;8.52;1.80;;;12.10;99.90;;;;;;6377066;22;19994;-83
2023/01/12 09:24:28;;;;;;;8.65;1.80;;;12.10;99.90;;;;;;6348604;22;20082;-84
2023/01/12 09:26:54;;;;;;;7.00;1.90;;;12.10;99.90;;;;;;6348620;22;20005;-84
2023/01/12 09:29:22;;;;;;;6.65;1.50;;;12.10;99.90;;;;;;6348498;22;20439;-84
2023/01/12 09:31:48;;;;;;;8.18;1.80;;;12.10;99.90;;;;;;6348898;22;20003;-84
2023/01/12 09:34:13;;;;;;;10.77;2.22;;;12.10;99.90;;;;;;6349510;22;20007;-84
2023/01/12 09:36:40;;;;;;;12.23;2.35;;;12.00;99.90;;;;;;6348476;22;20456;-84
2023/01/12 09:39:07;;;;;;;7.70;1.73;;;12.00;99.90;;;;;;6348480;22;20006;-84
2023/01/12 09:48:54;;;;;;;7.72;1.88;;;12.10;99.90;;;;;;6249244;23;20018;-86
2023/01/12 09:54:43;;;;;;;8.95;1.90;;;12.10;99.90;;;;;;6159309;23;20020;-83
2023/01/12 09:57:37;;;;;;;5.05;1.60;;;12.10;99.90;;;;;;6343852;22;20111;-82
2023/01/12 10:00:09;;;;;;;11.00;2.25;;;12.10;99.90;;;;;;6348304;22;20009;-68
2023/01/12 10:02:38;;;;;;;8.23;1.70;;;12.10;99.90;;;;;;6375714;22;20077;-68
2023/01/12 10:05:12;;;;;;;7.00;1.83;;;12.10;99.90;;;;;;6376197;22;20411;-68
2023/01/12 10:07:38;;;;;;;8.68;1.60;;;12.10;99.90;;;;;;6376239;22;20005;-72
2023/01/12 10:10:05;;;;;;;7.35;1.73;;;12.20;99.90;;;;;;6347567;22;20005;-75
2023/01/12 10:12:40;;;;;;;6.68;1.88;;;12.20;99.90;;;;;;6375815;22;20022;-73
2023/01/12 10:15:18;;;;;;;9.77;2.00;;;12.20;99.90;;;;;;6375887;22;19999;-74
2023/01/12 10:18:08;;;;;;;7.07;1.67;;;12.20;99.90;;;;;;6347348;22;20431;-73
2023/01/12 10:20:37;;;;;;;8.07;1.92;;;12.30;99.90;;;;;;6375947;22;20074;-73
2023/01/12 10:23:08;;;;;;;9.95;1.98;;;12.30;99.90;;;;;;6375616;22;20002;-71
2023/01/12 10:25:49;;;;;;;8.35;2.08;;;12.30;99.90;;;;;;6375647;22;20002;-71
2023/01/12 10:28:32;;;;;;;11.27;1.98;;;12.40;99.90;;;;;;6347809;22;20010;-71
2023/01/12 10:30:58;;;;;;;8.65;1.90;;;12.40;99.90;;;;;;6347718;22;20002;-71
2023/01/12 10:33:25;;;;;;;9.75;2.03;;;12.40;99.90;;;;;;6347402;22;20009;-71
2023/01/12 10:35:56;;;;;;;8.10;2.08;;;12.40;99.90;;;;;;6375623;22;20443;-72
2023/01/12 10:38:29;;;;;;;7.22;2.00;;;12.40;99.90;;;;;;6375571;22;20006;-71
2023/01/12 10:41:06;;;;;;;9.07;1.70;;;12.40;99.90;;;;;;6346275;22;20567;-71
2023/01/12 10:43:35;;;;;;;10.07;1.58;;;12.50;99.90;;;;;;6375025;22;20047;-71
2023/01/12 10:46:02;;;;;;;9.18;1.90;;;12.50;99.90;;;;;;6346913;22;20006;-71
2023/01/12 10:48:28;;;;;;;7.38;1.83;;;12.50;99.90;;;;;;6375221;22;20002;-72
2023/01/12 10:50:58;;;;;;;11.60;2.08;;;12.50;99.90;;;;;;6375384;22;20052;-72
2023/01/12 10:53:33;;;;;;;11.15;2.35;;;12.50;99.90;;;;;;6375632;22;20008;-72
2023/01/12 10:56:01;;;;;;;10.90;2.20;;;12.50;99.90;;;;;;6347603;22;20006;-73
2023/01/12 10:58:32;;;;;;;10.90;1.58;;;12.50;99.90;;;;;;6347660;22;20007;-72
2023/01/12 11:00:58;;;;;;;6.10;1.67;;;12.50;99.90;;;;;;6346665;22;20010;-72
2023/01/12 11:03:36;;;;;;;9.20;1.92;;;12.50;99.90;;;;;;6373802;22;19998;-72
2023/01/12 11:06:25;;;;;;;11.15;2.15;;;12.60;99.90;;;;;;6347527;22;20498;-72
2023/01/12 11:08:51;;;;;;;10.68;1.90;;;12.60;99.90;;;;;;6375012;22;20083;-73
2023/01/12 11:11:32;;;;;;;8.98;1.80;;;12.70;99.90;;;;;;6375429;22;19998;-85
2023/01/12 11:14:03;;;;;;;12.15;2.40;;;12.70;99.90;;;;;;6347591;22;20002;-82
2023/01/12 11:16:36;;;;;;;9.82;2.05;;;12.70;99.90;;;;;;6375374;22;20022;-84
2023/01/12 11:19:02;;;;;;;;;;;12.70;99.90;;;;;;6347834;22;20010;-83
2023/01/12 11:21:33;;;;;;;9.00;2.10;;;12.80;99.90;;;;;;6375345;22;19905;-77
2023/01/12 11:24:13;;;;;;;7.55;1.70;;;12.80;99.90;;;;;;6372275;22;20047;-80
2023/01/12 11:26:54;;;;;;;11.93;1.90;;;12.80;99.90;;;;;;6375229;22;20029;-74
2023/01/12 11:29:34;;;;;;;5.65;1.48;;;12.90;99.90;;;;;;6369184;22;20006;-76
2023/01/12 11:32:11;;;;;;;10.60;2.03;;;12.90;99.90;;;;;;6374047;22;20005;-74
2023/01/12 11:34:45;;;;;;;12.07;1.88;;;12.90;99.90;;;;;;6374008;22;20002;-76
2023/01/12 11:37:13;;;;;;;9.43;1.90;;;12.90;99.90;;;;;;6373862;22;20089;-74
2023/01/12 11:39:41;;;;;;;9.07;1.73;;;13.00;99.90;;;;;;6372837;22;20005;-74
2023/01/12 11:45:16;;;;;;;9.23;1.88;;;13.00;99.90;;;;;;6374546;22;20010;-71
2023/01/12 11:47:48;;;;;;;11.13;2.40;;;13.10;99.90;;;;;;6346323;22;20009;-73
2023/01/12 11:50:23;;;;;;;7.50;1.83;;;13.00;99.90;;;;;;6372965;22;19994;-73
2023/01/12 11:52:50;;;;;;;7.13;1.55;;;13.00;99.90;;;;;;6372649;22;20595;-73
2023/01/12 11:55:27;;;;;;;9.73;1.83;;;13.00;99.90;;;;;;6346556;22;19998;-73
2023/01/12 11:58:03;;;;;;;7.38;1.60;;;13.10;99.90;;;;;;6347028;22;20086;-73
2023/01/12 12:01:09;;;;;;;8.27;1.88;;;13.10;99.90;;;;;;6375064;22;20001;-73
2023/01/12 12:04:10;;;;;;;8.45;1.42;;;13.10;99.90;;;;;;6375065;22;19994;-73
2023/01/12 12:07:02;;;;;;;5.80;1.83;;;13.10;99.90;;;;;;6315001;22;20013;-71
2023/01/12 12:09:27;;;;;;;8.43;2.17;;;13.10;99.90;;;;;;6374518;22;20025;-72
2023/01/12 12:12:01;;;;;;;7.80;1.83;;;13.10;99.90;;;;;;6374134;22;20069;-71
2023/01/12 12:14:45;;;;;;;7.00;1.70;;;13.10;99.90;;;;;;6346841;22;20028;-72
2023/01/12 12:17:33;;;;;;;9.95;2.13;;;13.10;99.90;;;;;;6346873;22;20002;-69
2023/01/12 12:19:59;;;;;;;7.97;1.70;;;13.10;99.90;;;;;;6375313;22;20324;-72
2023/01/12 12:22:37;;;;;;;6.07;1.65;;;13.10;99.90;;;;;;6377289;22;20047;-72
2023/01/12 12:25:14;;;;;;;5.82;1.50;;;13.10;99.90;;;;;;6348456;22;20019;-69
2023/01/12 12:27:49;;;;;;;11.07;1.80;;;13.10;99.90;;;;;;6376765;22;20065;-69
2023/01/12 12:30:36;;;;;;;4.47;1.35;;;13.10;99.90;;;;;;6376949;22;20022;-68
2023/01/12 12:33:21;;;;;;;9.55;1.75;;;13.10;99.90;;;;;;6376848;22;19994;-74
2023/01/12 12:36:03;;;;;;;10.00;1.90;;;13.10;99.90;;;;;;6376993;22;20010;-69
2023/01/12 12:38:58;;;;;;;8.60;1.70;;;13.10;99.90;;;;;;6376623;22;20003;-68
2023/01/12 12:48:05;;;;;;;5.50;1.52;;;13.00;99.90;;;;;;6375115;22;20402;-69
2023/01/12 12:50:49;;;;;;;6.35;1.58;;;13.10;99.90;;;;;;6376911;22;20061;-69
2023/01/12 12:53:26;;;;;;;8.25;2.03;;;13.10;99.90;;;;;;6348404;22;19998;-69
2023/01/12 12:55:55;;;;;;;7.80;1.65;;;13.00;99.90;;;;;;6376814;22;20002;-69
2023/01/12 12:58:20;;;;;;;9.90;1.45;;;13.00;99.90;;;;;;6376859;22;20002;-69
2023/01/12 13:00:51;;;;;;;9.82;1.80;;;13.00;99.90;;;;;;6348812;22;20001;-69
2023/01/12 13:03:38;;;;;;;5.57;1.80;;;12.90;99.90;;;;;;6376730;22;19999;-70
2023/01/12 13:06:09;;;;;;;5.38;1.40;;;12.90;99.90;;;;;;6376920;22;20331;-69
2023/01/12 13:08:37;;;;;;;8.18;1.88;;;12.80;99.90;;;;;;6347879;22;20006;-70
2023/01/12 13:11:04;;;;;;;7.25;1.45;;;12.80;99.90;;;;;;6376668;22;20006;-68
2023/01/12 13:13:33;;;;;;;11.00;2.17;;;12.70;99.90;;;;;;6376512;22;20119;-70
2023/01/12 13:16:19;;;;;;;7.90;2.00;;;12.60;99.90;;;;;;6345380;22;20006;-71
2023/01/12 13:18:47;;;;;;;6.35;1.75;;;12.50;99.90;;;;;;6372019;22;20410;-73
2023/01/12 13:21:25;;;;;;;6.50;1.52;;;12.50;99.90;;;;;;6374500;22;20439;-73
2023/01/12 13:23:52;;;;;;;10.68;2.38;;;12.50;99.90;;;;;;6375038;22;20374;-72
2023/01/12 13:26:33;;;;;;;11.10;2.08;;;12.40;99.90;;;;;;6375606;22;20068;-73
2023/01/12 13:29:27;;;;;;;6.82;1.52;;;12.40;99.90;;;;;;6374862;22;20026;-73
2023/01/12 13:31:58;;;;;;;6.78;1.65;;;12.40;99.90;;;;;;6373063;22;19999;-75
2023/01/12 13:34:35;;;;;;;8.13;1.80;;;12.30;99.90;;;;;;6374970;22;20023;-72
2023/01/12 13:37:30;;;;;;;5.50;1.63;;;12.30;99.90;;;;;;6375217;22;20073;-73
2023/01/12 13:40:14;;;;;;;11.07;1.52;;;12.20;99.90;;;;;;6374944;22;20002;-71
2023/01/12 13:45:27;;;;;;;8.20;1.75;;;12.20;99.90;;;;;;6375161;22;20129;-72
2023/01/12 13:47:53;;;;;;;6.72;1.63;;;12.20;99.90;;;;;;6374481;22;20030;-71
2023/01/12 13:50:22;;;;;;;5.93;1.35;;;12.30;99.90;;;;;;6373308;22;20059;-74
2023/01/12 13:53:19;;;;;;;5.18;1.10;;;12.30;99.90;;;;;;6374238;22;20370;-74
2023/01/12 13:55:56;;;;;;;7.82;1.70;;;12.30;99.90;;;;;;6371710;22;20069;-74
2023/01/12 13:58:22;;;;;;;5.20;1.42;;;12.30;99.90;;;;;;6372429;22;20089;-74
2023/01/12 14:01:00;;;;;;;4.90;1.83;;;12.40;99.90;;;;;;6371282;22;19998;-74
2023/01/12 14:03:46;;;;;;;3.95;0.95;;;12.40;99.90;;;;;;6372327;22;20054;-73
2023/01/12 14:06:31;;;;;;;5.10;1.17;;;12.40;99.90;;;;;;6372462;22;20006;-74
2023/01/12 14:09:08;;;;;;;8.65;1.40;;;12.40;99.90;;;;;;6372368;22;20465;-74
2023/01/12 14:11:46;;;;;;;7.22;1.40;;;12.40;99.90;;;;;;6371821;22;19998;-74
2023/01/12 14:17:47;;;;;;;6.40;1.30;;;12.30;99.90;;;;;;6308234;22;20020;-71
2023/01/12 14:20:20;;;;;;;3.67;1.02;;;12.30;99.90;;;;;;6373786;22;20010;-73
2023/01/12 14:22:46;;;;;;;5.78;1.20;;;12.30;99.90;;;;;;6343219;22;19998;-73
2023/01/12 14:25:17;;;;;;;4.95;1.02;;;12.30;99.90;;;;;;6342446;22;20407;-70
2023/01/12 14:27:54;;;;;;;5.97;1.30;;;12.30;99.90;;;;;;6343790;22;20612;-69
2023/01/12 14:30:25;;;;;;;3.90;0.95;;;12.30;99.90;;;;;;6342559;22;20006;-68
2023/01/12 14:32:52;;;;;;;5.50;1.23;;;12.30;99.90;;;;;;6371996;22;20323;-68
2023/01/12 14:35:23;;;;;;;6.28;1.80;;;12.30;99.90;;;;;;6372946;22;20143;-69
2023/01/12 14:37:53;;;;;;;6.82;0.95;;;12.30;99.90;;;;;;6372479;22;20582;-69
2023/01/12 14:40:30;;;;;;;3.85;1.00;;;12.40;99.90;;;;;;6344177;22;20009;-69
2023/01/12 14:48:57;;;;;;;4.68;1.33;;;12.40;99.90;;;;;;6319067;22;20026;-69
2023/01/12 14:51:37;;;;;;;6.30;1.48;;;12.40;99.90;;;;;;6345410;22;20002;-69
2023/01/12 14:54:06;;;;;;;4.70;1.50;;;12.40;99.90;;;;;;6345444;22;20005;-70
2023/01/12 14:56:39;;;;;;;8.93;1.15;;;12.40;99.90;;;;;;6374011;22;20467;-69
2023/01/12 14:59:18;;;;;;;3.60;1.27;;;12.40;99.90;;;;;;6373907;22;20003;-72
2023/01/12 15:01:45;;;;;;;6.60;1.13;;;12.40;99.90;;;;;;6371528;22;19998;-69
2023/01/12 15:04:21;;;;;;;6.18;1.63;;;12.40;99.90;;;;;;6373976;22;19994;-69
2023/01/12 15:06:57;;;;;;;7.97;1.33;;;12.40;99.90;;;;;;6371123;22;20445;-68
2023/01/12 15:09:25;;;;;;;4.70;1.45;;;12.40;99.90;;;;;;6371353;22;20024;-68
2023/01/12 15:11:51;;;;;;;4.63;1.23;;;12.40;99.90;;;;;;6344026;22;20029;-69
2023/01/12 15:14:26;;;;;;;8.15;1.85;;;12.40;99.90;;;;;;6373448;22;20002;-68
2023/01/12 15:28:04;;;;;;;8.15;1.60;;;12.40;99.90;;;;;;6373733;22;20512;-70
2023/01/12 15:30:32;;;;;;;4.70;1.45;;;12.40;99.90;;;;;;6372932;22;20085;-71
2023/01/12 15:32:58;;;;;;;10.05;1.75;;;12.40;99.90;;;;;;6373928;22;19995;-70
2023/01/12 15:35:26;;;;;;;5.93;1.70;;;12.30;99.90;;;;;;6372941;22;20488;-70
2023/01/12 15:37:54;;;;;;;7.57;1.77;;;12.30;99.90;;;;;;6373172;22;20034;-75
2023/01/12 15:40:23;;;;;;;4.03;1.13;;;12.30;99.90;;;;;;6372402;22;19998;-69
2023/01/12 15:42:49;;;;;;;7.90;1.60;;;12.30;99.90;;;;;;6374139;22;20005;-70
2023/01/12 15:45:36;;;;;;;6.22;1.27;;;12.30;99.90;;;;;;6373576;22;20003;-72
2023/01/12 15:48:02;;;;;;;7.10;1.25;;;12.30;99.90;;;;;;6373810;22;20004;-71
2023/01/12 15:50:28;;;;;;;9.40;1.58;;;12.30;99.90;;;;;;6372744;22;20002;-71
2023/01/12 15:52:55;;;;;;;8.60;1.40;;;12.30;99.90;;;;;;6374036;22;20073;-72
2023/01/12 15:55:21;;;;;;;3.53;0.70;;;12.30;99.90;;;;;;6345330;22;20005;-72
2023/01/12 15:57:49;;;;;;;5.63;1.33;;;12.40;99.90;;;;;;6373756;22;20438;-72
2023/01/12 16:00:22;;;;;;;3.80;1.20;;;12.40;99.90;;;;;;6344747;22;19999;-70
2023/01/12 16:02:49;;;;;;;6.13;1.30;;;12.30;99.90;;;;;;6373495;22;20005;-70
2023/01/12 16:05:18;;;;;;;4.63;1.38;;;12.40;99.90;;;;;;6373780;22;20002;-71
2023/01/12 16:07:43;;;;;;;6.82;1.55;;;12.40;99.90;;;;;;6373885;22;20022;-71
2023/01/12 16:10:11;;;;;;;4.32;1.33;;;12.40;99.90;;;;;;6344604;22;20006;-72
2023/01/12 16:12:37;;;;;;;5.32;1.15;;;12.40;99.90;;;;;;6373697;22;20009;-72
2023/01/12 16:15:04;;;;;;;6.10;1.50;;;12.40;99.90;;;;;;6373552;22;20006;-79
2023/01/12 16:17:30;;;;;;;6.72;1.42;;;12.40;99.90;;;;;;6345339;22;20006;-74
2023/01/12 16:19:55;;;;;;;5.63;1.10;;;12.40;99.90;;;;;;6373485;22;20077;-72
2023/01/12 16:22:25;;;;;;;5.65;1.15;;;12.50;99.90;;;;;;6344490;22;20089;-75
2023/01/12 16:24:52;;;;;;;3.63;1.08;;;12.40;99.90;;;;;;6345604;22;20033;-72
2023/01/12 16:27:20;;;;;;;5.32;1.13;;;12.40;99.90;;;;;;6346051;22;20059;-75
2023/01/12 16:29:46;;;;;;;5.22;1.08;;;12.40;99.90;;;;;;6373350;22;20090;-75
2023/01/12 16:32:12;;;;;;;5.55;1.50;;;12.40;99.90;;;;;;6344511;22;20003;-79
2023/01/12 16:34:39;;;;;;;6.10;1.30;;;12.40;99.90;;;;;;6373671;22;20029;-70
2023/01/12 16:37:09;;;;;;;6.35;1.30;;;12.40;99.90;;;;;;6373238;22;20006;-70
2023/01/12 16:39:35;;;;;;;5.78;1.35;;;12.40;99.90;;;;;;6374133;22;20361;-70
2023/01/12 16:42:03;;;;;;;8.02;1.42;;;12.40;99.90;;;;;;6375114;22;19998;-71
2023/01/12 16:44:36;;;;;;;5.75;1.35;;;12.40;99.90;;;;;;6374685;22;20860;-70
2023/01/12 16:47:14;;;;;;;4.60;1.20;;;12.40;99.90;;;;;;6345762;22;20067;-68
2023/01/12 16:49:40;;;;;;;4.25;0.90;;;12.40;99.90;;;;;;6373990;22;20002;-68
2023/01/12 16:52:08;;;;;;;5.75;1.27;;;12.40;99.90;;;;;;6374507;22;19998;-69
2023/01/12 16:54:37;;;;;;;6.10;1.52;;;12.40;99.90;;;;;;6373787;22;19999;-68
2023/01/12 16:57:03;;;;;;;5.20;1.42;;;12.40;99.90;;;;;;6373311;22;20007;-68
2023/01/12 16:59:28;;;;;;;5.70;1.38;;;12.40;99.90;;;;;;6373609;22;20768;-74
2023/01/12 17:01:54;;;;;;;4.47;1.25;;;12.40;99.90;;;;;;6374367;22;20002;-75
2023/01/12 17:04:20;;;;;;;7.28;1.23;;;12.30;99.90;;;;;;6373592;22;20022;-76
2023/01/12 17:06:46;;;;;;;3.75;1.15;;;12.30;99.90;;;;;;6344093;22;20047;-69
2023/01/12 17:09:13;;;;;;;6.03;1.40;;;12.30;99.90;;;;;;6346552;22;20006;-69
2023/01/12 17:11:40;;;;;;;6.47;0.98;;;12.30;99.90;;;;;;6347101;22;20010;-69
2023/01/12 17:14:23;;;;;;;8.18;1.42;;;12.30;99.90;;;;;;6374977;22;19999;-69
2023/01/12 17:16:55;;;;;;;4.25;1.17;;;12.30;99.90;;;;;;6345665;22;20060;-69
2023/01/12 17:19:22;;;;;;;4.55;1.27;;;12.20;99.90;;;;;;6374566;22;20014;-69
2023/01/12 17:21:48;;;;;;;5.35;1.48;;;12.20;99.90;;;;;;6373605;22;20001;-69
2023/01/12 17:24:17;;;;;;;4.00;0.98;;;12.20;99.90;;;;;;6374403;22;20462;-67
2023/01/12 17:26:43;;;;;;;4.90;1.13;;;12.20;99.90;;;;;;6345481;22;20005;-67
2023/01/12 17:29:09;;;;;;;4.30;1.10;;;12.10;99.90;;;;;;6375267;22;20022;-67
2023/01/12 17:31:39;;;;;;;5.78;1.42;;;12.20;99.90;;;;;;6375659;22;20059;-67
2023/01/12 17:34:06;;;;;;;5.53;1.27;;;12.10;99.90;;;;;;6376242;22;20009;-67
2023/01/12 17:36:32;;;;;;;5.38;1.20;;;12.10;99.90;;;;;;6376044;22;20468;-67
2023/01/12 17:38:59;;;;;;;4.05;0.90;;;12.10;99.90;;;;;;6375877;22;20006;-68
2023/01/12 17:44:09;;;;;;;4.88;1.30;;;12.10;99.90;;;;;;6375735;22;20010;-69
2023/01/12 17:46:35;;;;;;;4.32;1.02;;;12.00;99.90;;;;;;6347728;22;20002;-69
2023/01/12 17:49:03;;;;;;;4.63;1.08;;;12.00;99.90;;;;;;6376327;22;20043;-69
2023/01/12 17:51:29;;;;;;;2.45;1.05;;;12.00;99.90;;;;;;6348407;22;20006;-68
2023/01/12 17:53:57;;;;;;;3.33;1.25;;;12.00;99.90;;;;;;6376086;22;20328;-69
2023/01/12 17:56:23;;;;;;;2.58;0.80;;;12.00;99.90;;;;;;6376238;22;20051;-69
2023/01/12 17:58:53;;;;;;;3.78;1.17;;;12.00;99.90;;;;;;6376176;22;19999;-68
2023/01/12 18:01:20;;;;;;;2.65;0.90;;;12.00;99.90;;;;;;6376191;22;20001;-68
2023/01/12 18:03:46;;;;;;;3.45;1.20;;;12.00;99.90;;;;;;6348088;22;20036;-71
2023/01/12 18:06:12;;;;;;;3.88;1.27;;;12.00;99.90;;;;;;6373934;22;20442;-85
2023/01/12 18:08:38;;;;;;;3.20;1.15;;;12.00;99.90;;;;;;6347111;22;20013;-87
2023/01/12 18:11:07;;;;;;;4.93;1.27;;;12.00;99.90;;;;;;6375418;22;20073;-88
2023/01/12 18:13:36;;;;;;;4.72;1.42;;;12.00;99.90;;;;;;6347268;22;20006;-86
2023/01/12 18:16:03;;;;;;;4.65;1.05;;;12.00;99.90;;;;;;6346532;22;20003;-86
2023/01/12 18:18:29;;;;;;;5.45;1.52;;;12.00;99.90;;;;;;6347360;22;20125;-86
2023/01/12 18:20:54;;;;;;;6.15;1.17;;;12.00;99.90;;;;;;6346773;22;19998;-83
2023/01/12 18:23:20;;;;;;;3.30;1.15;;;12.10;99.90;;;;;;6345764;22;19999;-85
2023/01/12 18:25:47;;;;;;;3.17;1.15;;;12.00;99.90;;;;;;6346467;22;20002;-82
2023/01/12 18:28:13;;;;;;;4.10;1.25;;;12.00;99.90;;;;;;6374342;22;20033;-80
2023/01/12 18:30:38;;;;;;;4.70;1.33;;;12.10;99.90;;;;;;6374971;22;20331;-86
2023/01/12 18:33:04;;;;;;;5.72;1.38;;;12.10;99.90;;;;;;6346250;22;20006;-84
2023/01/12 18:35:34;;;;;;;5.13;1.00;;;12.10;99.90;;;;;;6346381;22;20009;-87
2023/01/12 18:38:00;;;;;;;5.90;1.73;;;12.10;99.90;;;;;;6374578;22;19998;-81
2023/01/12 18:40:26;;;;;;;4.43;1.05;;;12.10;99.90;;;;;;6347788;22;19998;-80
2023/01/12 18:42:53;;;;;;;3.22;1.15;;;12.10;99.90;;;;;;6374871;22;19991;-83
2023/01/12 18:45:21;;;;;;;2.92;1.08;;;12.10;99.90;;;;;;6375324;22;19994;-83
2023/01/12 18:53:24;;;;;;;3.38;1.10;;;12.20;99.90;;;;;;6375502;22;20055;-83
2023/01/12 18:55:53;;;;;;;2.53;0.90;;;12.20;99.90;;;;;;6346009;22;20443;-81